Church Hill, TN (37642)

12:34 PM EDT on October 02, 2014 (GMT -0400)
Rotherwood | Change Station
CLOSE
Current Station
Personal Weather Station
Location: Kingsport, TN
Elevation: 1171 ft
Nearby Weather Stations

Elev 1171 ft 36.54 °N, 82.61 °W | Updated 2 seconds ago

Clear
Clear
78.4 °F
Feels Like 80 °F
N
2.4
Wind Variable Wind from ENE
Gusts 4.5 mph

Today
High -- | Low -- °F
--% Chance of Precip.
Yesterday
High -- | Low -- °F
Precip. -- in
7:26 AM 7:12 PM
First Quarter, 60% visible
Pressure 30.10 in
Visibility 10.0 miles
Clouds Few 7000 ft
Few 25000 ft
Heat Index 80 °F
Dew Point 65 °F
Humidity 63%
Rainfall 0.00 in
Snow Depth Not available.
UV 6 out of 12
Pollen 4.30 out of 12
Air Quality Not available.
Flu Activity Not available.
METAR KTRI 021553Z 00000KT 10SM FEW070 FEW250 23/13 A3015 RMK AO2 SLP191 T02280128 PNO $

More Conditions Fewer Conditions

Pressure 30.10 in
Visibility 10.0 miles
Clouds Few 7000 ft
Few 25000 ft
Heat Index 80 °F
Dew Point 65 °F
Humidity 63%
Rainfall 0.00 in
Snow Depth Not available.
UV 6 out of 12
Pollen 4.30 out of 12
Air Quality Not available.
Flu Activity Not available.
METAR KTRI 021553Z 00000KT 10SM FEW070 FEW250 23/13 A3015 RMK AO2 SLP191 T02280128 PNO $

More Conditions Fewer Conditions

10-Day Weather Forecast

Almanac

Astronomy

Oct. 02, 2014 Rise Set
Actual Time 7:26 AM EDT 7:12 PM EDT
Civil Twilight 7:01 AM EDT 7:38 PM EDT
Nautical Twilight 6:31 AM EDT 8:08 PM EDT
Astronomical Twilight 6:01 AM EDT 8:38 PM EDT
Moon 3:09 PM EDT 12:51 AM EDT
Length of Visible Light 12h 37m
Length of Day
11h 45m
Tomorrow will be 2m 18s shorter.
First Quarter, 60% of the Moon is Illuminated
Today
First Quarter
Oct 8
Full
Oct 15
Last Quarter
Oct 23
New
Oct 30
First Quarter

Today's Extremes

State Highs State Lows

Community

WunderPhotos

Upload Photos

1,758,294 photos uploaded!

WunderBlogs® & News

Nearby

Snow Depth

Station Depth Elevation
No new snow has been reported.

Earthquake Activity

City Distance Mag. Time & Date
No recent earthquake activity has been reported nearby.
Minimum magnitude displayed is 2.5.

Coastal Water Temperatures

Place Temperature
No Stations Reporting

Nearby Weather Stations